BCS5081 ESGG-ESSA
Flight info
| Callsign | BCS5081 |
|---|---|
| Flight time | 1h 3m |
| Altitude | 27000 |
| Route | LABAN N873 ARS T317 ELTOK |
| Aircraft | RJ1H/M-SDFGIRWY/LB1 |
Departure
| Time | 2026-05-05 16:34 |
|---|---|
| Airport | Göteborg Landvetter Airport (ESGG) |
Arrival
| Time | 2026-05-05 17:38 |
|---|---|
| Airport | Stockholm-Arlanda Airport (ESSA) |
| Time | Latitude | Longitude | Altitude | Speed | Heading |
|---|---|---|---|---|---|
| 2026-05-05 16:05 | 57.67240 | 12.29733 | 516 ft | 0 kts | 116° |
| 2026-05-05 16:24 | 57.67250 | 12.29693 | 516 ft | 3 kts | 116° |
| 2026-05-05 16:25 | 57.67258 | 12.29662 | 516 ft | 3 kts | 116° |
| 2026-05-05 16:25 | 57.67266 | 12.29602 | 516 ft | 0 kts | 50° |
| 2026-05-05 16:31 | 57.67278 | 12.29622 | 516 ft | 6 kts | 35° |
| 2026-05-05 16:31 | 57.67323 | 12.29662 | 516 ft | 8 kts | 25° |
| 2026-05-05 16:31 | 57.67358 | 12.29679 | 516 ft | 3 kts | 316° |
| 2026-05-05 16:31 | 57.67370 | 12.29631 | 516 ft | 5 kts | 294° |
| 2026-05-05 16:32 | 57.67390 | 12.29555 | 516 ft | 7 kts | 297° |
| 2026-05-05 16:32 | 57.67416 | 12.29460 | 515 ft | 9 kts | 296° |
| 2026-05-05 16:32 | 57.67446 | 12.29345 | 515 ft | 10 kts | 296° |
| 2026-05-05 16:32 | 57.67458 | 12.29204 | 515 ft | 12 kts | 264° |
| 2026-05-05 16:33 | 57.67444 | 12.29047 | 515 ft | 11 kts | 237° |
| 2026-05-05 16:33 | 57.67422 | 12.29017 | 515 ft | 0 kts | 204° |
| 2026-05-05 16:33 | 57.67391 | 12.28991 | 515 ft | 0 kts | 205° |
| 2026-05-05 16:34 | 57.67385 | 12.28985 | 515 ft | 12 kts | 206° |
| 2026-05-05 16:34 | 57.67047 | 12.28676 | 513 ft | 93 kts | 206° |
| 2026-05-05 16:34 | 57.66315 | 12.27958 | 672 ft | 135 kts | 216° |
| 2026-05-05 16:34 | 57.65461 | 12.27202 | 1470 ft | 132 kts | 211° |
| 2026-05-05 16:35 | 57.64636 | 12.26460 | 2159 ft | 135 kts | 212° |
| 2026-05-05 16:35 | 57.63723 | 12.25643 | 2514 ft | 158 kts | 211° |
| 2026-05-05 16:35 | 57.62707 | 12.24765 | 2979 ft | 163 kts | 210° |
| 2026-05-05 16:35 | 57.61561 | 12.24348 | 3301 ft | 188 kts | 173° |
| 2026-05-05 16:36 | 57.60268 | 12.25351 | 3615 ft | 212 kts | 157° |
| 2026-05-05 16:36 | 57.58933 | 12.26643 | 4277 ft | 219 kts | 155° |
| 2026-05-05 16:36 | 57.57667 | 12.28303 | 4942 ft | 230 kts | 129° |
| 2026-05-05 16:36 | 57.57116 | 12.31083 | 5697 ft | 233 kts | 89° |
| 2026-05-05 16:37 | 57.57317 | 12.34135 | 6293 ft | 245 kts | 76° |
| 2026-05-05 16:37 | 57.57748 | 12.37296 | 6828 ft | 257 kts | 68° |
| 2026-05-05 16:37 | 57.58699 | 12.40104 | 7418 ft | 260 kts | 41° |
| 2026-05-05 16:37 | 57.59985 | 12.42534 | 8146 ft | 266 kts | 39° |
| 2026-05-05 16:38 | 57.61322 | 12.44950 | 8951 ft | 270 kts | 37° |
| 2026-05-05 16:38 | 57.62697 | 12.47390 | 9795 ft | 279 kts | 37° |
| 2026-05-05 16:38 | 57.64139 | 12.49968 | 10376 ft | 295 kts | 37° |
| 2026-05-05 16:38 | 57.65661 | 12.52705 | 10953 ft | 313 kts | 38° |
| 2026-05-05 16:39 | 57.67257 | 12.55632 | 11545 ft | 328 kts | 39° |
| 2026-05-05 16:39 | 57.68904 | 12.58723 | 12113 ft | 342 kts | 40° |
| 2026-05-05 16:39 | 57.70599 | 12.61943 | 12723 ft | 352 kts | 40° |
| 2026-05-05 16:39 | 57.72321 | 12.65269 | 13350 ft | 359 kts | 41° |
| 2026-05-05 16:40 | 57.74058 | 12.68670 | 13956 ft | 364 kts | 41° |
| 2026-05-05 16:40 | 57.75820 | 12.72118 | 14536 ft | 367 kts | 40° |
| 2026-05-05 16:40 | 57.77600 | 12.75568 | 15100 ft | 370 kts | 40° |
| 2026-05-05 16:40 | 57.79393 | 12.79042 | 15650 ft | 372 kts | 40° |
| 2026-05-05 16:41 | 57.81200 | 12.82551 | 16172 ft | 374 kts | 40° |
| 2026-05-05 16:41 | 57.83016 | 12.86083 | 16670 ft | 377 kts | 40° |
| 2026-05-05 16:41 | 57.84839 | 12.89642 | 17157 ft | 380 kts | 40° |
| 2026-05-05 16:41 | 57.86679 | 12.93238 | 17646 ft | 383 kts | 40° |
| 2026-05-05 16:42 | 57.88532 | 12.96851 | 18130 ft | 385 kts | 40° |
| 2026-05-05 16:42 | 57.90413 | 13.00468 | 18558 ft | 388 kts | 40° |
| 2026-05-05 16:42 | 57.92297 | 13.04140 | 18968 ft | 391 kts | 40° |
| 2026-05-05 16:42 | 57.94187 | 13.07852 | 19384 ft | 394 kts | 40° |
| 2026-05-05 16:43 | 57.96084 | 13.11587 | 19791 ft | 396 kts | 40° |
| 2026-05-05 16:43 | 57.97993 | 13.15349 | 20181 ft | 399 kts | 40° |
| 2026-05-05 16:43 | 57.99919 | 13.19143 | 20590 ft | 402 kts | 40° |
| 2026-05-05 16:43 | 58.01861 | 13.22971 | 20991 ft | 404 kts | 40° |
| 2026-05-05 16:44 | 58.03808 | 13.26815 | 21379 ft | 407 kts | 40° |
| 2026-05-05 16:44 | 58.05769 | 13.30690 | 21762 ft | 410 kts | 40° |
| 2026-05-05 16:44 | 58.07743 | 13.34594 | 22138 ft | 412 kts | 40° |
| 2026-05-05 16:44 | 58.09736 | 13.38531 | 22517 ft | 415 kts | 40° |
| 2026-05-05 16:45 | 58.11730 | 13.42476 | 22893 ft | 417 kts | 40° |
| 2026-05-05 16:45 | 58.13736 | 13.46482 | 23261 ft | 420 kts | 41° |
| 2026-05-05 16:45 | 58.15736 | 13.50544 | 23598 ft | 423 kts | 41° |
| 2026-05-05 16:45 | 58.17742 | 13.54632 | 23906 ft | 424 kts | 41° |
| 2026-05-05 16:46 | 58.19753 | 13.58747 | 24221 ft | 426 kts | 41° |
| 2026-05-05 16:46 | 58.21768 | 13.62877 | 24559 ft | 427 kts | 41° |
| 2026-05-05 16:46 | 58.23783 | 13.67014 | 24976 ft | 426 kts | 41° |
| 2026-05-05 16:46 | 58.25787 | 13.71132 | 25371 ft | 425 kts | 41° |
| 2026-05-05 16:47 | 58.27790 | 13.75257 | 25762 ft | 424 kts | 41° |
| 2026-05-05 16:47 | 58.29789 | 13.79375 | 26138 ft | 424 kts | 41° |
| 2026-05-05 16:47 | 58.31783 | 13.83493 | 26530 ft | 423 kts | 41° |
| 2026-05-05 16:47 | 58.33778 | 13.87613 | 26770 ft | 423 kts | 41° |
| 2026-05-05 16:48 | 58.35754 | 13.91695 | 26876 ft | 424 kts | 41° |
| 2026-05-05 16:48 | 58.37750 | 13.95835 | 26900 ft | 420 kts | 41° |
| 2026-05-05 16:48 | 58.39751 | 13.99986 | 26906 ft | 430 kts | 41° |
| 2026-05-05 16:48 | 58.41796 | 14.04219 | 26906 ft | 439 kts | 41° |
| 2026-05-05 16:49 | 58.43892 | 14.08544 | 26914 ft | 448 kts | 41° |
| 2026-05-05 16:49 | 58.46011 | 14.12962 | 26914 ft | 454 kts | 42° |
| 2026-05-05 16:49 | 58.48139 | 14.17459 | 26906 ft | 456 kts | 43° |
| 2026-05-05 16:49 | 58.50268 | 14.21963 | 26901 ft | 456 kts | 42° |
| 2026-05-05 16:50 | 58.52383 | 14.26381 | 26894 ft | 455 kts | 42° |
| 2026-05-05 16:50 | 58.54527 | 14.30846 | 26890 ft | 456 kts | 42° |
| 2026-05-05 16:50 | 58.56663 | 14.35346 | 26894 ft | 457 kts | 43° |
| 2026-05-05 16:50 | 58.58784 | 14.39875 | 26887 ft | 457 kts | 43° |
| 2026-05-05 16:51 | 58.60922 | 14.44393 | 26886 ft | 457 kts | 42° |
| 2026-05-05 16:51 | 58.63027 | 14.48964 | 26890 ft | 459 kts | 46° |
| 2026-05-05 16:51 | 58.64965 | 14.53960 | 26886 ft | 461 kts | 51° |
| 2026-05-05 16:51 | 58.66726 | 14.59099 | 26887 ft | 460 kts | 53° |
| 2026-05-05 16:52 | 58.68418 | 14.64343 | 26890 ft | 462 kts | 54° |
| 2026-05-05 16:52 | 58.70086 | 14.69520 | 26892 ft | 462 kts | 54° |
| 2026-05-05 16:52 | 58.71786 | 14.74782 | 26889 ft | 463 kts | 53° |
| 2026-05-05 16:52 | 58.73502 | 14.80007 | 26892 ft | 464 kts | 53° |
| 2026-05-05 16:53 | 58.75229 | 14.85254 | 26896 ft | 463 kts | 53° |
| 2026-05-05 16:53 | 58.76956 | 14.90498 | 26899 ft | 464 kts | 53° |
| 2026-05-05 16:53 | 58.78688 | 14.95763 | 26901 ft | 464 kts | 53° |
| 2026-05-05 16:53 | 58.80417 | 15.01027 | 26900 ft | 464 kts | 53° |
| 2026-05-05 16:54 | 58.82141 | 15.06285 | 26897 ft | 464 kts | 53° |
| 2026-05-05 16:54 | 58.83867 | 15.11557 | 26899 ft | 465 kts | 53° |
| 2026-05-05 16:54 | 58.85591 | 15.16837 | 26894 ft | 465 kts | 53° |
| 2026-05-05 16:54 | 58.87319 | 15.22135 | 26896 ft | 465 kts | 53° |
| 2026-05-05 16:55 | 58.89041 | 15.27426 | 26893 ft | 465 kts | 53° |
| 2026-05-05 16:55 | 58.90762 | 15.32726 | 26893 ft | 465 kts | 53° |
| 2026-05-05 16:55 | 58.92481 | 15.38023 | 26891 ft | 466 kts | 53° |
| 2026-05-05 16:55 | 58.94205 | 15.43344 | 26889 ft | 466 kts | 53° |
| 2026-05-05 16:56 | 58.95926 | 15.48669 | 26883 ft | 466 kts | 53° |
| 2026-05-05 16:56 | 58.97643 | 15.53992 | 26885 ft | 466 kts | 53° |
| 2026-05-05 16:56 | 58.99361 | 15.59321 | 26886 ft | 467 kts | 53° |
| 2026-05-05 16:56 | 59.01080 | 15.64668 | 26844 ft | 467 kts | 53° |
| 2026-05-05 16:57 | 59.02794 | 15.70007 | 26709 ft | 465 kts | 53° |
| 2026-05-05 16:57 | 59.04507 | 15.75350 | 25621 ft | 467 kts | 53° |
| 2026-05-05 16:57 | 59.06236 | 15.80725 | 24532 ft | 471 kts | 54° |
| 2026-05-05 16:57 | 59.07957 | 15.86147 | 23461 ft | 474 kts | 54° |
| 2026-05-05 16:58 | 59.09676 | 15.91592 | 22634 ft | 467 kts | 54° |
| 2026-05-05 16:58 | 59.11350 | 15.96914 | 22072 ft | 454 kts | 54° |
| 2026-05-05 16:58 | 59.12976 | 16.02103 | 21420 ft | 445 kts | 54° |
| 2026-05-05 16:58 | 59.14577 | 16.07205 | 20723 ft | 439 kts | 54° |
| 2026-05-05 16:59 | 59.16169 | 16.12271 | 19844 ft | 438 kts | 54° |
| 2026-05-05 16:59 | 59.17751 | 16.17285 | 19011 ft | 430 kts | 54° |
| 2026-05-05 16:59 | 59.18788 | 16.20564 | 18389 ft | 425 kts | 54° |
| 2026-05-05 16:59 | 59.20335 | 16.25489 | 17376 ft | 417 kts | 55° |
| 2026-05-05 17:00 | 59.21816 | 16.30288 | 16389 ft | 408 kts | 56° |
| 2026-05-05 17:00 | 59.23262 | 16.34992 | 15451 ft | 400 kts | 56° |
| 2026-05-05 17:00 | 59.24662 | 16.39557 | 14468 ft | 395 kts | 56° |
| 2026-05-05 17:00 | 59.26075 | 16.44177 | 13891 ft | 386 kts | 56° |
| 2026-05-05 17:01 | 59.27404 | 16.48542 | 13586 ft | 370 kts | 56° |
| 2026-05-05 17:01 | 59.28686 | 16.52774 | 13354 ft | 354 kts | 56° |
| 2026-05-05 17:01 | 59.29906 | 16.56824 | 13272 ft | 336 kts | 56° |
| 2026-05-05 17:01 | 59.31059 | 16.60682 | 13244 ft | 319 kts | 56° |
| 2026-05-05 17:02 | 59.32149 | 16.64357 | 13216 ft | 305 kts | 56° |
| 2026-05-05 17:02 | 59.33189 | 16.67884 | 13183 ft | 293 kts | 56° |
| 2026-05-05 17:02 | 59.34197 | 16.71319 | 13001 ft | 289 kts | 56° |
| 2026-05-05 17:02 | 59.35185 | 16.74727 | 12769 ft | 286 kts | 59° |
| 2026-05-05 17:03 | 59.35689 | 16.78504 | 12494 ft | 289 kts | 88° |
| 2026-05-05 17:03 | 59.35712 | 16.82429 | 12235 ft | 287 kts | 90° |
| 2026-05-05 17:03 | 59.35704 | 16.86334 | 11989 ft | 286 kts | 91° |
| 2026-05-05 17:03 | 59.35673 | 16.90221 | 11751 ft | 284 kts | 91° |
| 2026-05-05 17:04 | 59.35630 | 16.94092 | 11520 ft | 283 kts | 91° |
| 2026-05-05 17:04 | 59.35579 | 16.97933 | 11283 ft | 281 kts | 92° |
| 2026-05-05 17:04 | 59.35525 | 17.01749 | 11062 ft | 279 kts | 92° |
| 2026-05-05 17:04 | 59.35471 | 17.05541 | 10838 ft | 278 kts | 92° |
| 2026-05-05 17:05 | 59.35416 | 17.09330 | 10609 ft | 277 kts | 92° |
| 2026-05-05 17:05 | 59.35358 | 17.13094 | 10383 ft | 276 kts | 92° |
| 2026-05-05 17:05 | 59.35300 | 17.16825 | 10180 ft | 273 kts | 92° |
| 2026-05-05 17:05 | 59.35239 | 17.20621 | 9618 ft | 285 kts | 92° |
| 2026-05-05 17:06 | 59.35173 | 17.24543 | 9264 ft | 289 kts | 92° |
| 2026-05-05 17:06 | 59.35110 | 17.28464 | 9039 ft | 287 kts | 92° |
| 2026-05-05 17:06 | 59.35046 | 17.32364 | 8824 ft | 286 kts | 91° |
| 2026-05-05 17:06 | 59.35150 | 17.36249 | 8605 ft | 285 kts | 84° |
| 2026-05-05 17:07 | 59.35357 | 17.40105 | 8393 ft | 284 kts | 83° |
| 2026-05-05 17:07 | 59.35580 | 17.43937 | 8199 ft | 282 kts | 83° |
| 2026-05-05 17:07 | 59.35809 | 17.47752 | 7998 ft | 282 kts | 82° |
| 2026-05-05 17:07 | 59.36027 | 17.51338 | 7822 ft | 280 kts | 81° |
| 2026-05-05 17:08 | 59.36331 | 17.55074 | 7398 ft | 289 kts | 78° |
| 2026-05-05 17:08 | 59.36711 | 17.59046 | 7019 ft | 293 kts | 78° |
| 2026-05-05 17:08 | 59.37100 | 17.62969 | 6693 ft | 295 kts | 77° |
| 2026-05-05 17:08 | 59.37493 | 17.66907 | 6445 ft | 293 kts | 77° |
| 2026-05-05 17:09 | 59.37890 | 17.70846 | 6088 ft | 295 kts | 77° |
| 2026-05-05 17:09 | 59.38288 | 17.74785 | 5799 ft | 293 kts | 77° |
| 2026-05-05 17:09 | 59.38697 | 17.78697 | 5514 ft | 291 kts | 74° |
| 2026-05-05 17:09 | 59.39600 | 17.82191 | 5091 ft | 290 kts | 43° |
| 2026-05-05 17:10 | 59.41079 | 17.84854 | 4729 ft | 289 kts | 38° |
| 2026-05-05 17:10 | 59.42550 | 17.87524 | 4758 ft | 291 kts | 37° |
| 2026-05-05 17:10 | 59.44234 | 17.89909 | 4000 ft | 304 kts | 29° |
| 2026-05-05 17:10 | 59.46038 | 17.92196 | 3225 ft | 313 kts | 28° |
| 2026-05-05 17:11 | 59.47875 | 17.94438 | 2811 ft | 307 kts | 27° |
| 2026-05-05 17:11 | 59.49742 | 17.96637 | 2028 ft | 316 kts | 27° |
| 2026-05-05 17:11 | 59.51562 | 17.98741 | 2027 ft | 297 kts | 27° |
| 2026-05-05 17:11 | 59.53269 | 18.00766 | 2152 ft | 278 kts | 30° |
| 2026-05-05 17:12 | 59.54747 | 18.03102 | 2170 ft | 271 kts | 41° |
| 2026-05-05 17:12 | 59.55889 | 18.05966 | 2345 ft | 258 kts | 57° |
| 2026-05-05 17:12 | 59.56677 | 18.08841 | 3005 ft | 227 kts | 58° |
| 2026-05-05 17:12 | 59.57137 | 18.12010 | 3183 ft | 253 kts | 92° |
| 2026-05-05 17:13 | 59.56699 | 18.15449 | 3575 ft | 266 kts | 114° |
| 2026-05-05 17:13 | 59.55637 | 18.18501 | 3863 ft | 279 kts | 144° |
| 2026-05-05 17:13 | 59.53914 | 18.20176 | 3985 ft | 270 kts | 175° |
| 2026-05-05 17:13 | 59.52091 | 18.20197 | 4018 ft | 261 kts | 190° |
| 2026-05-05 17:14 | 59.50324 | 18.19858 | 4006 ft | 247 kts | 198° |
| 2026-05-05 17:14 | 59.48849 | 18.18527 | 4010 ft | 231 kts | 217° |
| 2026-05-05 17:14 | 59.47474 | 18.16890 | 3998 ft | 226 kts | 216° |
| 2026-05-05 17:14 | 59.46136 | 18.15313 | 4012 ft | 225 kts | 217° |
| 2026-05-05 17:15 | 59.44800 | 18.13684 | 4008 ft | 226 kts | 217° |
| 2026-05-05 17:15 | 59.43499 | 18.12074 | 3997 ft | 222 kts | 218° |
| 2026-05-05 17:15 | 59.42205 | 18.10474 | 3987 ft | 217 kts | 217° |
| 2026-05-05 17:15 | 59.40926 | 18.08892 | 3980 ft | 212 kts | 218° |
| 2026-05-05 17:16 | 59.39984 | 18.06854 | 3997 ft | 198 kts | 254° |
| 2026-05-05 17:16 | 59.39925 | 18.04259 | 4015 ft | 193 kts | 275° |
| 2026-05-05 17:16 | 59.40036 | 18.01614 | 4014 ft | 192 kts | 275° |
| 2026-05-05 17:16 | 59.40167 | 17.99006 | 4001 ft | 192 kts | 276° |
| 2026-05-05 17:17 | 59.40324 | 17.96399 | 3999 ft | 192 kts | 276° |
| 2026-05-05 17:17 | 59.40494 | 17.93838 | 4011 ft | 191 kts | 277° |
| 2026-05-05 17:17 | 59.40691 | 17.91259 | 3990 ft | 191 kts | 284° |
| 2026-05-05 17:17 | 59.41496 | 17.89238 | 4014 ft | 199 kts | 328° |
| 2026-05-05 17:18 | 59.42823 | 17.88307 | 4021 ft | 205 kts | 343° |
| 2026-05-05 17:18 | 59.44267 | 17.88573 | 4024 ft | 214 kts | 9° |
| 2026-05-05 17:18 | 59.45754 | 17.89097 | 3736 ft | 220 kts | 0° |
| 2026-05-05 17:18 | 59.47222 | 17.89530 | 3451 ft | 202 kts | 5° |
| 2026-05-05 17:19 | 59.48515 | 17.90016 | 3214 ft | 177 kts | 4° |
| 2026-05-05 17:19 | 59.49698 | 17.90438 | 2942 ft | 171 kts | 3° |
| 2026-05-05 17:19 | 59.50878 | 17.90837 | 2696 ft | 172 kts | 3° |
| 2026-05-05 17:19 | 59.52054 | 17.91258 | 2441 ft | 171 kts | 4° |
| 2026-05-05 17:20 | 59.53230 | 17.91674 | 2195 ft | 172 kts | 4° |
| 2026-05-05 17:20 | 59.54399 | 17.92097 | 1976 ft | 169 kts | 4° |
| 2026-05-05 17:20 | 59.55550 | 17.92517 | 1745 ft | 168 kts | 4° |
| 2026-05-05 17:20 | 59.56679 | 17.92920 | 1507 ft | 161 kts | 4° |
| 2026-05-05 17:21 | 59.57746 | 17.93303 | 1293 ft | 146 kts | 5° |
| 2026-05-05 17:21 | 59.58697 | 17.93662 | 1076 ft | 132 kts | 4° |
| 2026-05-05 17:21 | 59.59558 | 17.93991 | 839 ft | 120 kts | 1° |
| 2026-05-05 17:22 | 59.61155 | 17.94525 | 488 ft | 115 kts | 6° |
| 2026-05-05 17:22 | 59.61945 | 17.94827 | 301 ft | 114 kts | 7° |
| 2026-05-05 17:22 | 59.62711 | 17.95104 | 163 ft | 107 kts | 5° |
| 2026-05-05 17:22 | 59.63396 | 17.95365 | 139 ft | 105 kts | 2° |
| 2026-05-05 17:23 | 59.64244 | 17.95632 | 625 ft | 130 kts | 4° |
| 2026-05-05 17:23 | 59.65115 | 17.96030 | 1329 ft | 123 kts | 9° |
| 2026-05-05 17:23 | 59.65951 | 17.96788 | 1471 ft | 153 kts | 31° |
| 2026-05-05 17:23 | 59.66614 | 17.98671 | 1840 ft | 187 kts | 73° |
| 2026-05-05 17:24 | 59.66736 | 18.01437 | 2196 ft | 215 kts | 92° |
| 2026-05-05 17:24 | 59.66631 | 18.04417 | 2548 ft | 214 kts | 94° |
| 2026-05-05 17:24 | 59.66527 | 18.07292 | 3225 ft | 221 kts | 94° |
| 2026-05-05 17:24 | 59.66381 | 18.10385 | 3756 ft | 221 kts | 96° |
| 2026-05-05 17:25 | 59.66207 | 18.13309 | 3857 ft | 208 kts | 97° |
| 2026-05-05 17:25 | 59.66090 | 18.15180 | 3929 ft | 210 kts | 97° |
| 2026-05-05 17:25 | 59.65532 | 18.19209 | 4001 ft | 237 kts | 129° |
| 2026-05-05 17:25 | 59.64267 | 18.21108 | 4016 ft | 231 kts | 168° |
| 2026-05-05 17:26 | 59.62689 | 18.21311 | 4046 ft | 227 kts | 189° |
| 2026-05-05 17:26 | 59.61111 | 18.21089 | 4050 ft | 227 kts | 189° |
| 2026-05-05 17:26 | 59.59544 | 18.20811 | 4028 ft | 225 kts | 191° |
| 2026-05-05 17:26 | 59.57993 | 18.20469 | 4017 ft | 224 kts | 192° |
| 2026-05-05 17:27 | 59.56437 | 18.20108 | 4010 ft | 225 kts | 192° |
| 2026-05-05 17:27 | 59.54884 | 18.19734 | 4003 ft | 225 kts | 192° |
| 2026-05-05 17:27 | 59.53325 | 18.19359 | 4009 ft | 225 kts | 192° |
| 2026-05-05 17:27 | 59.51797 | 18.18954 | 4001 ft | 222 kts | 197° |
| 2026-05-05 17:28 | 59.50431 | 18.17669 | 4006 ft | 214 kts | 218° |
| 2026-05-05 17:28 | 59.49189 | 18.16092 | 4011 ft | 216 kts | 216° |
| 2026-05-05 17:28 | 59.47902 | 18.14510 | 4007 ft | 215 kts | 217° |
| 2026-05-05 17:28 | 59.46637 | 18.12947 | 4014 ft | 215 kts | 217° |
| 2026-05-05 17:29 | 59.45369 | 18.11363 | 3998 ft | 216 kts | 217° |
| 2026-05-05 17:29 | 59.44103 | 18.09768 | 3996 ft | 217 kts | 217° |
| 2026-05-05 17:29 | 59.42843 | 18.08195 | 4006 ft | 216 kts | 217° |
| 2026-05-05 17:29 | 59.41582 | 18.06620 | 4003 ft | 215 kts | 217° |
| 2026-05-05 17:30 | 59.40358 | 18.04945 | 3986 ft | 212 kts | 230° |
| 2026-05-05 17:30 | 59.39794 | 18.02419 | 4006 ft | 205 kts | 270° |
| 2026-05-05 17:30 | 59.39867 | 17.99591 | 4009 ft | 205 kts | 274° |
| 2026-05-05 17:30 | 59.39972 | 17.96807 | 4001 ft | 205 kts | 275° |
| 2026-05-05 17:31 | 59.40113 | 17.94053 | 3998 ft | 199 kts | 276° |
| 2026-05-05 17:31 | 59.40259 | 17.91453 | 3995 ft | 190 kts | 278° |
| 2026-05-05 17:31 | 59.40817 | 17.89210 | 3996 ft | 183 kts | 319° |
| 2026-05-05 17:31 | 59.41956 | 17.88189 | 4054 ft | 181 kts | 334° |
| 2026-05-05 17:32 | 59.43209 | 17.87942 | 4086 ft | 189 kts | 7° |
| 2026-05-05 17:32 | 59.44436 | 17.88529 | 3951 ft | 173 kts | 6° |
| 2026-05-05 17:32 | 59.45605 | 17.88969 | 3725 ft | 170 kts | 4° |
| 2026-05-05 17:32 | 59.46741 | 17.89372 | 3461 ft | 161 kts | 4° |
| 2026-05-05 17:33 | 59.47786 | 17.89757 | 3265 ft | 145 kts | 4° |
| 2026-05-05 17:33 | 59.48718 | 17.90091 | 3082 ft | 128 kts | 2° |
| 2026-05-05 17:33 | 59.49560 | 17.90385 | 2897 ft | 119 kts | 1° |
| 2026-05-05 17:33 | 59.50376 | 17.90665 | 2721 ft | 119 kts | 1° |
| 2026-05-05 17:34 | 59.51188 | 17.90937 | 2554 ft | 119 kts | 3° |
| 2026-05-05 17:34 | 59.51997 | 17.91223 | 2402 ft | 117 kts | 2° |
| 2026-05-05 17:34 | 59.52802 | 17.91528 | 2248 ft | 120 kts | 4° |
| 2026-05-05 17:34 | 59.53613 | 17.91836 | 2079 ft | 117 kts | 2° |
| 2026-05-05 17:35 | 59.54407 | 17.92118 | 1887 ft | 116 kts | 1° |
| 2026-05-05 17:35 | 59.55192 | 17.92387 | 1765 ft | 114 kts | 2° |
| 2026-05-05 17:35 | 59.55972 | 17.92663 | 1622 ft | 114 kts | 3° |
| 2026-05-05 17:35 | 59.56770 | 17.92922 | 1472 ft | 118 kts | 2° |
| 2026-05-05 17:36 | 59.57578 | 17.93213 | 1322 ft | 118 kts | 4° |
| 2026-05-05 17:36 | 59.58382 | 17.93511 | 1120 ft | 118 kts | 3° |
| 2026-05-05 17:36 | 59.59174 | 17.93817 | 909 ft | 113 kts | 4° |
| 2026-05-05 17:36 | 59.59941 | 17.94065 | 754 ft | 111 kts | 5° |
| 2026-05-05 17:37 | 59.60697 | 17.94322 | 587 ft | 110 kts | 8° |
| 2026-05-05 17:37 | 59.61205 | 17.94525 | 470 ft | 110 kts | 12° |
| 2026-05-05 17:37 | 59.61964 | 17.94833 | 318 ft | 111 kts | 12° |
| 2026-05-05 17:37 | 59.62965 | 17.95194 | 157 ft | 103 kts | 13° |
| 2026-05-05 17:38 | 59.63410 | 17.95345 | 124 ft | 86 kts | 10° |
| 2026-05-05 17:38 | 59.63839 | 17.95511 | 115 ft | 46 kts | 11° |
| 2026-05-05 17:38 | 59.64061 | 17.95551 | 112 ft | 23 kts | 351° |
| 2026-05-05 17:38 | 59.64204 | 17.95480 | 108 ft | 21 kts | 340° |
| 2026-05-05 17:39 | 59.64342 | 17.95380 | 106 ft | 21 kts | 339° |
| 2026-05-05 17:39 | 59.64485 | 17.95337 | 105 ft | 20 kts | 8° |
| 2026-05-05 17:39 | 59.64530 | 17.95348 | 105 ft | 2 kts | 357° |
| 2026-05-05 17:39 | 59.64552 | 17.95309 | 104 ft | 9 kts | 290° |
| 2026-05-05 17:40 | 59.64535 | 17.95185 | 104 ft | 12 kts | 236° |
| 2026-05-05 17:40 | 59.64508 | 17.95102 | 104 ft | 13 kts | 238° |
| 2026-05-05 17:40 | 59.64473 | 17.94993 | 104 ft | 14 kts | 238° |
| 2026-05-05 17:40 | 59.64414 | 17.94808 | 103 ft | 19 kts | 238° |
| 2026-05-05 17:41 | 59.64333 | 17.94554 | 103 ft | 25 kts | 237° |
| 2026-05-05 17:41 | 59.64235 | 17.94247 | 103 ft | 27 kts | 238° |
| 2026-05-05 17:41 | 59.64137 | 17.93942 | 108 ft | 25 kts | 238° |
| 2026-05-05 17:41 | 59.64047 | 17.93659 | 112 ft | 24 kts | 237° |
| 2026-05-05 17:42 | 59.63988 | 17.93407 | 110 ft | 16 kts | 261° |
| 2026-05-05 17:42 | 59.63953 | 17.93254 | 110 ft | 8 kts | 209° |
| 2026-05-05 17:42 | 59.63930 | 17.93203 | 110 ft | 7 kts | 265° |
| 2026-05-05 17:42 | 59.63952 | 17.93090 | 109 ft | 10 kts | 297° |
| 2026-05-05 17:43 | 59.63987 | 17.92955 | 111 ft | 12 kts | 297° |
| 2026-05-05 17:43 | 59.64019 | 17.92837 | 111 ft | 10 kts | 304° |
| 2026-05-05 17:43 | 59.64079 | 17.92801 | 111 ft | 10 kts | 15° |
| 2026-05-05 17:43 | 59.64135 | 17.92737 | 112 ft | 11 kts | 297° |
| 2026-05-05 17:44 | 59.64118 | 17.92672 | 112 ft | 2 kts | 179° |
| 2026-05-05 17:44 | 59.64097 | 17.92701 | 112 ft | 10 kts | 135° |
| 2026-05-05 17:44 | 59.64036 | 17.92754 | 112 ft | 6 kts | 188° |
| 2026-05-05 17:44 | 59.63997 | 17.92719 | 111 ft | 7 kts | 207° |
| 2026-05-05 17:45 | 59.63967 | 17.92688 | 112 ft | 0 kts | 207° |